Tara — XUAB3 — position and weather

sailwx.info

Track history (hours):
 
Tides and Currents Weather Stations Pressure Air Temp Water Temp Dewpoint Dewpoint Depression Visibility Wind Speed Wind Dir Waves Ship Positions

Tara

Last reported at 2015-May-11 10:29 UTC. Time now 2015-May-22 10:03 UTC.
Position N 33°10' E 033°43'.
Warning: this ship's position is 10 days out of date.

Length 82 m; draft 3.8 m.

Type: Ship. MMSI: 515410000.

Date/timePositionNaut miles runAvg speedWind from/ knotsBaromVisibWave heightAir tempDewpointWater temp
2015-May-11 10:29N 33°10' E 033°43'112 9.4
2015-May-10 22:33N 31°50' E 032°11'31 4.3
2015-May-10 15:23N 31°27' E 031°46'0 0.0
2015-May-10 14:32N 31°27' E 031°46'0 0.0
2015-May-10 11:25N 31°27' E 031°46'9 0.2
2015-May-08 21:29N 31°36' E 031°46'0 0.0
2015-May-08 18:16N 31°36' E 031°46'0 0.0
2015-May-08 17:13N 31°36' E 031°46'0 0.0
2015-May-08 14:29N 31°36' E 031°46'0 0.0
2015-May-08 13:21N 31°36' E 031°46'0 0.0
2015-May-08 11:31N 31°36' E 031°46'0 0.0
2015-May-08 10:11N 31°36' E 031°46'0 0.0
2015-May-08 08:28N 31°36' E 031°46'0 0.0
2015-May-08 07:10N 31°36' E 031°46'0 0.0
2015-May-08 06:08N 31°36' E 031°46'0 0.0
2015-May-08 05:14N 31°36' E 031°46'0 0.0
2015-May-08 04:33N 31°36' E 031°46'0 0.0
2015-May-08 00:06N 31°36' E 031°46'0 0.0
2015-May-07 16:11N 31°36' E 031°46'0 0.0
2015-May-07 15:29N 31°36' E 031°46'0 0.0
2015-May-07 14:18N 31°36' E 031°46'0 0.0
2015-May-07 11:05N 31°36' E 031°46'18 1.0
2015-May-06 16:23N 31°41' E 031°26'  
Track history (hours):
 
Tides and Currents Weather Stations Pressure Air Temp Water Temp Dewpoint Dewpoint Depression Visibility Wind Speed Wind Dir Waves Ship Positions

Tara

Last reported at 2015-May-11 10:29 UTC. Time now 2015-May-22 10:03 UTC.
Position N 33°10' E 033°43'.
Warning: this ship's position is 10 days out of date.

Length 82 m; draft 3.8 m.

Type: Ship. MMSI: 515410000.

Date/timePositionNaut miles runAvg speedWind from/ knotsBaromVisibWave heightAir tempDewpointWater temp
2015-May-11 10:29N 33°10' E 033°43'112 9.4
2015-May-10 22:33N 31°50' E 032°11'31 4.3
2015-May-10 15:23N 31°27' E 031°46'0 0.0
2015-May-10 14:32N 31°27' E 031°46'0 0.0
2015-May-10 11:25N 31°27' E 031°46'9 0.2
2015-May-08 21:29N 31°36' E 031°46'0 0.0
2015-May-08 18:16N 31°36' E 031°46'0 0.0
2015-May-08 17:13N 31°36' E 031°46'0 0.0
2015-May-08 14:29N 31°36' E 031°46'0 0.0
2015-May-08 13:21N 31°36' E 031°46'0 0.0
2015-May-08 11:31N 31°36' E 031°46'0 0.0
2015-May-08 10:11N 31°36' E 031°46'0 0.0
2015-May-08 08:28N 31°36' E 031°46'0 0.0
2015-May-08 07:10N 31°36' E 031°46'0 0.0
2015-May-08 06:08N 31°36' E 031°46'0 0.0
2015-May-08 05:14N 31°36' E 031°46'0 0.0
2015-May-08 04:33N 31°36' E 031°46'0 0.0
2015-May-08 00:06N 31°36' E 031°46'0 0.0
2015-May-07 16:11N 31°36' E 031°46'0 0.0
2015-May-07 15:29N 31°36' E 031°46'0 0.0
2015-May-07 14:18N 31°36' E 031°46'0 0.0
2015-May-07 11:05N 31°36' E 031°46'18 1.0
2015-May-06 16:23N 31°41' E 031°26'  

Dump ship's entire track history